sensor_id;sensor_type;location;lat;lon;timestamp;temperature;humidity
16829;DHT22;8531;48.078;11.968;2022-10-17T00:00:28;14.70;99.90
16829;DHT22;8531;48.078;11.968;2022-10-17T00:02:56;14.70;99.90
16829;DHT22;8531;48.078;11.968;2022-10-17T00:05:22;14.60;99.90
16829;DHT22;8531;48.078;11.968;2022-10-17T00:07:50;14.60;99.90
16829;DHT22;8531;48.078;11.968;2022-10-17T00:10:15;14.50;99.90
16829;DHT22;8531;48.078;11.968;2022-10-17T00:12:41;14.50;99.90
16829;DHT22;8531;48.078;11.968;2022-10-17T00:15:07;14.60;99.90
16829;DHT22;8531;48.078;11.968;2022-10-17T00:17:33;14.50;99.90
16829;DHT22;8531;48.078;11.968;2022-10-17T00:20:00;14.50;99.90
16829;DHT22;8531;48.078;11.968;2022-10-17T00:22:26;14.40;99.90
16829;DHT22;8531;48.078;11.968;2022-10-17T00:24:52;14.40;99.90
16829;DHT22;8531;48.078;11.968;2022-10-17T00:27:18;14.30;99.90
16829;DHT22;8531;48.078;11.968;2022-10-17T00:29:48;14.30;99.90
16829;DHT22;8531;48.078;11.968;2022-10-17T00:32:14;14.20;99.90
16829;DHT22;8531;48.078;11.968;2022-10-17T00:34:40;14.10;99.90
16829;DHT22;8531;48.078;11.968;2022-10-17T00:37:05;14.20;99.90
16829;DHT22;8531;48.078;11.968;2022-10-17T00:39:31;14.10;99.90
16829;DHT22;8531;48.078;11.968;2022-10-17T00:41:56;14.10;99.90
16829;DHT22;8531;48.078;11.968;2022-10-17T00:46:55;14.10;99.90
16829;DHT22;8531;48.078;11.968;2022-10-17T00:49:22;14.00;99.90
16829;DHT22;8531;48.078;11.968;2022-10-17T00:51:53;14.00;99.90
16829;DHT22;8531;48.078;11.968;2022-10-17T00:54:23;14.00;99.90
16829;DHT22;8531;48.078;11.968;2022-10-17T00:56:50;14.10;99.90
16829;DHT22;8531;48.078;11.968;2022-10-17T00:59:19;14.00;99.90
16829;DHT22;8531;48.078;11.968;2022-10-17T01:02:16;14.00;99.90
16829;DHT22;8531;48.078;11.968;2022-10-17T01:04:45;14.00;99.90
16829;DHT22;8531;48.078;11.968;2022-10-17T01:07:11;14.00;99.90
16829;DHT22;8531;48.078;11.968;2022-10-17T01:09:38;14.00;99.90
16829;DHT22;8531;48.078;11.968;2022-10-17T01:26:02;14.10;99.90
16829;DHT22;8531;48.078;11.968;2022-10-17T01:32:30;14.10;99.90
16829;DHT22;8531;48.078;11.968;2022-10-17T01:34:44;14.00;99.90
16829;DHT22;8531;48.078;11.968;2022-10-17T01:37:25;14.00;99.90
16829;DHT22;8531;48.078;11.968;2022-10-17T01:40:06;14.00;99.90
16829;DHT22;8531;48.078;11.968;2022-10-17T01:45:20;13.90;99.90
16829;DHT22;8531;48.078;11.968;2022-10-17T01:47:49;13.90;99.90
16829;DHT22;8531;48.078;11.968;2022-10-17T01:50:30;13.80;99.90
16829;DHT22;8531;48.078;11.968;2022-10-17T01:53:01;13.80;99.90
16829;DHT22;8531;48.078;11.968;2022-10-17T01:55:34;13.90;99.90
16829;DHT22;8531;48.078;11.968;2022-10-17T01:58:09;13.80;99.90
16829;DHT22;8531;48.078;11.968;2022-10-17T02:00:37;13.80;99.90
16829;DHT22;8531;48.078;11.968;2022-10-17T02:03:06;13.80;99.90
16829;DHT22;8531;48.078;11.968;2022-10-17T02:05:37;13.80;99.90
16829;DHT22;8531;48.078;11.968;2022-10-17T02:08:04;13.80;99.90
16829;DHT22;8531;48.078;11.968;2022-10-17T02:16:37;13.70;99.90
16829;DHT22;8531;48.078;11.968;2022-10-17T02:21:58;13.60;99.90
16829;DHT22;8531;48.078;11.968;2022-10-17T02:32:43;13.60;99.90
16829;DHT22;8531;48.078;11.968;2022-10-17T02:35:13;13.60;99.90
16829;DHT22;8531;48.078;11.968;2022-10-17T02:37:41;13.60;99.90
16829;DHT22;8531;48.078;11.968;2022-10-17T02:40:10;13.50;99.90
16829;DHT22;8531;48.078;11.968;2022-10-17T02:42:39;13.50;99.90
16829;DHT22;8531;48.078;11.968;2022-10-17T02:45:06;13.60;99.90
16829;DHT22;8531;48.078;11.968;2022-10-17T02:47:58;13.60;99.90
16829;DHT22;8531;48.078;11.968;2022-10-17T02:53:24;13.40;99.90
16829;DHT22;8531;48.078;11.968;2022-10-17T02:55:57;13.40;99.90
16829;DHT22;8531;48.078;11.968;2022-10-17T02:58:29;13.30;99.90
16829;DHT22;8531;48.078;11.968;2022-10-17T03:00:56;13.20;99.90
16829;DHT22;8531;48.078;11.968;2022-10-17T03:03:29;13.10;99.90
16829;DHT22;8531;48.078;11.968;2022-10-17T03:05:55;13.10;99.90
16829;DHT22;8531;48.078;11.968;2022-10-17T03:08:21;13.00;99.90
16829;DHT22;8531;48.078;11.968;2022-10-17T03:10:47;12.90;99.90
16829;DHT22;8531;48.078;11.968;2022-10-17T03:13:13;12.80;99.90
16829;DHT22;8531;48.078;11.968;2022-10-17T03:15:39;12.80;99.90
16829;DHT22;8531;48.078;11.968;2022-10-17T03:18:05;12.80;99.90
16829;DHT22;8531;48.078;11.968;2022-10-17T03:20:31;12.70;99.90
16829;DHT22;8531;48.078;11.968;2022-10-17T03:22:57;12.70;99.90
16829;DHT22;8531;48.078;11.968;2022-10-17T03:25:23;12.60;99.90
16829;DHT22;8531;48.078;11.968;2022-10-17T03:27:48;12.60;99.90
16829;DHT22;8531;48.078;11.968;2022-10-17T03:30:14;12.50;99.90
16829;DHT22;8531;48.078;11.968;2022-10-17T03:32:40;12.50;99.90
16829;DHT22;8531;48.078;11.968;2022-10-17T03:35:06;12.50;99.90
16829;DHT22;8531;48.078;11.968;2022-10-17T03:37:31;12.50;99.90
16829;DHT22;8531;48.078;11.968;2022-10-17T03:39:57;12.50;99.90
16829;DHT22;8531;48.078;11.968;2022-10-17T03:42:23;12.50;99.90
16829;DHT22;8531;48.078;11.968;2022-10-17T03:44:48;12.50;99.90
16829;DHT22;8531;48.078;11.968;2022-10-17T03:47:14;12.50;99.90
16829;DHT22;8531;48.078;11.968;2022-10-17T03:49:40;12.50;99.90
16829;DHT22;8531;48.078;11.968;2022-10-17T03:52:10;12.50;99.90
16829;DHT22;8531;48.078;11.968;2022-10-17T03:54:36;12.50;99.90
16829;DHT22;8531;48.078;11.968;2022-10-17T03:57:02;12.40;99.90
16829;DHT22;8531;48.078;11.968;2022-10-17T03:59:28;12.40;99.90
16829;DHT22;8531;48.078;11.968;2022-10-17T04:01:53;12.30;99.90
16829;DHT22;8531;48.078;11.968;2022-10-17T04:04:19;12.20;99.90
16829;DHT22;8531;48.078;11.968;2022-10-17T04:06:45;12.20;99.90
16829;DHT22;8531;48.078;11.968;2022-10-17T04:09:10;12.20;99.90
16829;DHT22;8531;48.078;11.968;2022-10-17T04:11:36;12.20;99.90
16829;DHT22;8531;48.078;11.968;2022-10-17T04:14:02;12.20;99.90
16829;DHT22;8531;48.078;11.968;2022-10-17T04:16:28;12.20;99.90
16829;DHT22;8531;48.078;11.968;2022-10-17T04:18:55;12.20;99.90
16829;DHT22;8531;48.078;11.968;2022-10-17T04:21:22;12.20;99.90
16829;DHT22;8531;48.078;11.968;2022-10-17T04:23:53;12.20;99.90
16829;DHT22;8531;48.078;11.968;2022-10-17T04:26:19;12.10;99.90
16829;DHT22;8531;48.078;11.968;2022-10-17T04:28:45;12.10;99.90
16829;DHT22;8531;48.078;11.968;2022-10-17T04:31:12;12.10;99.90
16829;DHT22;8531;48.078;11.968;2022-10-17T04:33:38;12.10;99.90
16829;DHT22;8531;48.078;11.968;2022-10-17T04:36:11;12.20;99.90
16829;DHT22;8531;48.078;11.968;2022-10-17T04:38:36;12.20;99.90
16829;DHT22;8531;48.078;11.968;2022-10-17T04:41:05;12.10;99.90
16829;DHT22;8531;48.078;11.968;2022-10-17T04:43:33;12.10;99.90
16829;DHT22;8531;48.078;11.968;2022-10-17T04:46:01;12.00;99.90
16829;DHT22;8531;48.078;11.968;2022-10-17T04:48:28;12.00;99.90
16829;DHT22;8531;48.078;11.968;2022-10-17T04:50:59;12.00;99.90
16829;DHT22;8531;48.078;11.968;2022-10-17T04:53:26;12.10;99.90
16829;DHT22;8531;48.078;11.968;2022-10-17T04:55:51;12.10;99.90
16829;DHT22;8531;48.078;11.968;2022-10-17T04:58:18;12.10;99.90
16829;DHT22;8531;48.078;11.968;2022-10-17T05:00:44;12.20;99.90
16829;DHT22;8531;48.078;11.968;2022-10-17T05:03:10;12.20;99.90
16829;DHT22;8531;48.078;11.968;2022-10-17T05:05:37;12.30;99.90
16829;DHT22;8531;48.078;11.968;2022-10-17T05:08:03;12.30;99.90
16829;DHT22;8531;48.078;11.968;2022-10-17T05:10:29;12.30;99.90
16829;DHT22;8531;48.078;11.968;2022-10-17T05:12:55;12.30;99.90
16829;DHT22;8531;48.078;11.968;2022-10-17T05:15:21;12.30;99.90
16829;DHT22;8531;48.078;11.968;2022-10-17T05:17:46;12.40;99.90
16829;DHT22;8531;48.078;11.968;2022-10-17T05:20:12;12.40;99.90
16829;DHT22;8531;48.078;11.968;2022-10-17T05:22:38;12.50;99.90
16829;DHT22;8531;48.078;11.968;2022-10-17T05:25:04;12.50;99.90
16829;DHT22;8531;48.078;11.968;2022-10-17T05:27:30;12.50;99.90
16829;DHT22;8531;48.078;11.968;2022-10-17T05:29:56;12.60;99.90
16829;DHT22;8531;48.078;11.968;2022-10-17T05:32:22;12.60;99.90
16829;DHT22;8531;48.078;11.968;2022-10-17T05:34:47;12.60;99.90
16829;DHT22;8531;48.078;11.968;2022-10-17T05:37:13;12.60;99.90
16829;DHT22;8531;48.078;11.968;2022-10-17T05:39:39;12.60;99.90
16829;DHT22;8531;48.078;11.968;2022-10-17T05:42:04;12.50;99.90
16829;DHT22;8531;48.078;11.968;2022-10-17T05:44:31;12.40;99.90
16829;DHT22;8531;48.078;11.968;2022-10-17T05:46:57;12.30;99.90
16829;DHT22;8531;48.078;11.968;2022-10-17T05:49:23;12.30;99.90
16829;DHT22;8531;48.078;11.968;2022-10-17T05:51:49;12.30;99.90
16829;DHT22;8531;48.078;11.968;2022-10-17T05:54:14;12.30;99.90
16829;DHT22;8531;48.078;11.968;2022-10-17T05:56:40;12.20;99.90
16829;DHT22;8531;48.078;11.968;2022-10-17T05:59:05;12.10;99.90
16829;DHT22;8531;48.078;11.968;2022-10-17T06:01:32;12.10;99.90
16829;DHT22;8531;48.078;11.968;2022-10-17T06:03:58;12.10;99.90
16829;DHT22;8531;48.078;11.968;2022-10-17T06:06:23;12.20;99.90
16829;DHT22;8531;48.078;11.968;2022-10-17T06:08:49;12.20;99.90
16829;DHT22;8531;48.078;11.968;2022-10-17T06:11:15;12.20;99.90
16829;DHT22;8531;48.078;11.968;2022-10-17T06:13:41;12.30;99.90
16829;DHT22;8531;48.078;11.968;2022-10-17T06:16:06;12.30;99.90
16829;DHT22;8531;48.078;11.968;2022-10-17T06:18:32;12.30;99.90
16829;DHT22;8531;48.078;11.968;2022-10-17T06:21:04;12.40;99.90
16829;DHT22;8531;48.078;11.968;2022-10-17T06:23:31;12.50;99.90
16829;DHT22;8531;48.078;11.968;2022-10-17T06:26:01;12.50;99.90
16829;DHT22;8531;48.078;11.968;2022-10-17T06:28:27;12.60;99.90
16829;DHT22;8531;48.078;11.968;2022-10-17T06:30:53;12.60;99.90
16829;DHT22;8531;48.078;11.968;2022-10-17T06:33:18;12.60;99.90
16829;DHT22;8531;48.078;11.968;2022-10-17T06:35:53;12.70;99.90
16829;DHT22;8531;48.078;11.968;2022-10-17T06:38:19;12.70;99.90
16829;DHT22;8531;48.078;11.968;2022-10-17T06:40:44;12.70;99.90
16829;DHT22;8531;48.078;11.968;2022-10-17T06:43:10;12.80;99.90
16829;DHT22;8531;48.078;11.968;2022-10-17T06:45:38;12.80;99.90
16829;DHT22;8531;48.078;11.968;2022-10-17T06:48:04;12.80;99.90
16829;DHT22;8531;48.078;11.968;2022-10-17T06:50:30;12.80;99.90
16829;DHT22;8531;48.078;11.968;2022-10-17T06:52:55;12.90;99.90
16829;DHT22;8531;48.078;11.968;2022-10-17T06:55:21;12.90;99.90
16829;DHT22;8531;48.078;11.968;2022-10-17T06:57:47;12.80;99.90
16829;DHT22;8531;48.078;11.968;2022-10-17T07:00:13;12.90;99.90
16829;DHT22;8531;48.078;11.968;2022-10-17T07:02:39;13.00;99.90
16829;DHT22;8531;48.078;11.968;2022-10-17T07:05:06;13.00;99.90
16829;DHT22;8531;48.078;11.968;2022-10-17T07:07:32;13.00;99.90
16829;DHT22;8531;48.078;11.968;2022-10-17T07:09:58;13.10;99.90
16829;DHT22;8531;48.078;11.968;2022-10-17T07:12:24;13.10;99.90
16829;DHT22;8531;48.078;11.968;2022-10-17T07:14:50;13.20;99.90
16829;DHT22;8531;48.078;11.968;2022-10-17T07:17:16;13.20;99.90
16829;DHT22;8531;48.078;11.968;2022-10-17T07:19:43;13.30;99.90
16829;DHT22;8531;48.078;11.968;2022-10-17T07:22:09;13.30;99.90
16829;DHT22;8531;48.078;11.968;2022-10-17T07:24:34;13.30;99.90
16829;DHT22;8531;48.078;11.968;2022-10-17T07:27:00;13.40;99.90
16829;DHT22;8531;48.078;11.968;2022-10-17T07:29:26;13.50;99.90
16829;DHT22;8531;48.078;11.968;2022-10-17T07:31:52;13.50;99.90
16829;DHT22;8531;48.078;11.968;2022-10-17T07:34:17;13.60;99.90
16829;DHT22;8531;48.078;11.968;2022-10-17T07:36:44;13.70;99.90
16829;DHT22;8531;48.078;11.968;2022-10-17T07:39:09;13.70;99.90
16829;DHT22;8531;48.078;11.968;2022-10-17T07:41:35;13.80;99.90
16829;DHT22;8531;48.078;11.968;2022-10-17T07:44:01;13.90;99.90
16829;DHT22;8531;48.078;11.968;2022-10-17T07:46:27;14.00;99.90
16829;DHT22;8531;48.078;11.968;2022-10-17T07:48:52;14.10;99.90
16829;DHT22;8531;48.078;11.968;2022-10-17T07:51:18;14.10;99.90
16829;DHT22;8531;48.078;11.968;2022-10-17T07:53:44;14.20;99.90
16829;DHT22;8531;48.078;11.968;2022-10-17T07:56:10;14.30;99.90
16829;DHT22;8531;48.078;11.968;2022-10-17T07:58:37;14.40;99.90
16829;DHT22;8531;48.078;11.968;2022-10-17T08:01:06;14.40;99.90
16829;DHT22;8531;48.078;11.968;2022-10-17T08:03:32;14.50;99.90
16829;DHT22;8531;48.078;11.968;2022-10-17T08:06:01;14.50;99.90
16829;DHT22;8531;48.078;11.968;2022-10-17T08:08:28;14.60;99.90
16829;DHT22;8531;48.078;11.968;2022-10-17T08:10:54;14.80;99.90
16829;DHT22;8531;48.078;11.968;2022-10-17T08:13:21;14.80;99.90
16829;DHT22;8531;48.078;11.968;2022-10-17T08:15:47;14.90;99.90
16829;DHT22;8531;48.078;11.968;2022-10-17T08:18:14;15.00;99.90
16829;DHT22;8531;48.078;11.968;2022-10-17T08:20:41;15.00;99.90
16829;DHT22;8531;48.078;11.968;2022-10-17T08:23:07;15.10;99.90
16829;DHT22;8531;48.078;11.968;2022-10-17T08:25:32;15.20;99.90
16829;DHT22;8531;48.078;11.968;2022-10-17T08:27:58;15.30;99.90
16829;DHT22;8531;48.078;11.968;2022-10-17T08:30:24;15.40;99.90
16829;DHT22;8531;48.078;11.968;2022-10-17T08:32:50;15.50;99.90
16829;DHT22;8531;48.078;11.968;2022-10-17T08:35:16;15.60;99.90
16829;DHT22;8531;48.078;11.968;2022-10-17T08:37:41;15.80;99.90
16829;DHT22;8531;48.078;11.968;2022-10-17T08:40:16;15.90;99.90
16829;DHT22;8531;48.078;11.968;2022-10-17T08:43:08;16.00;99.90
16829;DHT22;8531;48.078;11.968;2022-10-17T08:45:50;16.20;99.90
16829;DHT22;8531;48.078;11.968;2022-10-17T08:48:19;16.40;99.90
16829;DHT22;8531;48.078;11.968;2022-10-17T08:50:51;16.50;99.90
16829;DHT22;8531;48.078;11.968;2022-10-17T08:55:50;16.80;99.90
16829;DHT22;8531;48.078;11.968;2022-10-17T08:58:20;17.00;99.90
16829;DHT22;8531;48.078;11.968;2022-10-17T09:03:44;17.20;99.90
16829;DHT22;8531;48.078;11.968;2022-10-17T09:06:25;17.30;99.90
16829;DHT22;8531;48.078;11.968;2022-10-17T09:17:57;17.80;99.90
16829;DHT22;8531;48.078;11.968;2022-10-17T09:20:30;17.90;99.90
16829;DHT22;8531;48.078;11.968;2022-10-17T09:23:00;18.00;99.90
16829;DHT22;8531;48.078;11.968;2022-10-17T09:25:27;18.30;99.90
16829;DHT22;8531;48.078;11.968;2022-10-17T09:30:46;18.40;99.90
16829;DHT22;8531;48.078;11.968;2022-10-17T09:33:16;18.50;99.90
16829;DHT22;8531;48.078;11.968;2022-10-17T09:35:42;18.60;99.90
16829;DHT22;8531;48.078;11.968;2022-10-17T09:38:20;18.70;99.90
16829;DHT22;8531;48.078;11.968;2022-10-17T09:41:10;18.80;99.90
16829;DHT22;8531;48.078;11.968;2022-10-17T09:43:38;18.90;99.90
16829;DHT22;8531;48.078;11.968;2022-10-17T09:48:59;19.10;99.90
16829;DHT22;8531;48.078;11.968;2022-10-17T09:51:26;19.10;99.90
16829;DHT22;8531;48.078;11.968;2022-10-17T09:53:56;19.10;99.90
16829;DHT22;8531;48.078;11.968;2022-10-17T09:56:24;19.20;99.90
16829;DHT22;8531;48.078;11.968;2022-10-17T09:58:55;19.30;99.90
16829;DHT22;8531;48.078;11.968;2022-10-17T10:01:29;19.30;99.90
16829;DHT22;8531;48.078;11.968;2022-10-17T10:06:33;19.30;99.90
16829;DHT22;8531;48.078;11.968;2022-10-17T10:08:59;19.30;99.90
16829;DHT22;8531;48.078;11.968;2022-10-17T10:11:56;19.40;99.90
16829;DHT22;8531;48.078;11.968;2022-10-17T10:14:23;19.50;99.90
16829;DHT22;8531;48.078;11.968;2022-10-17T10:16:50;19.60;99.90
16829;DHT22;8531;48.078;11.968;2022-10-17T10:19:31;19.60;99.90
16829;DHT22;8531;48.078;11.968;2022-10-17T10:21:59;19.80;99.90
16829;DHT22;8531;48.078;11.968;2022-10-17T10:24:25;19.90;99.90
16829;DHT22;8531;48.078;11.968;2022-10-17T10:26:56;20.10;99.90
16829;DHT22;8531;48.078;11.968;2022-10-17T10:29:30;20.20;99.90
16829;DHT22;8531;48.078;11.968;2022-10-17T10:32:09;20.10;99.90
16829;DHT22;8531;48.078;11.968;2022-10-17T10:34:37;20.20;99.90
16829;DHT22;8531;48.078;11.968;2022-10-17T10:37:06;20.20;99.90
16829;DHT22;8531;48.078;11.968;2022-10-17T10:39:44;20.50;99.90
16829;DHT22;8531;48.078;11.968;2022-10-17T10:42:25;20.70;99.90
16829;DHT22;8531;48.078;11.968;2022-10-17T10:44:54;20.80;99.90
16829;DHT22;8531;48.078;11.968;2022-10-17T10:47:23;20.90;99.90
16829;DHT22;8531;48.078;11.968;2022-10-17T10:49:52;20.90;99.90
16829;DHT22;8531;48.078;11.968;2022-10-17T10:52:44;20.90;99.90
16829;DHT22;8531;48.078;11.968;2022-10-17T11:00:55;21.40;99.90
16829;DHT22;8531;48.078;11.968;2022-10-17T11:03:35;21.70;99.90
16829;DHT22;8531;48.078;11.968;2022-10-17T11:06:18;21.90;99.90
16829;DHT22;8531;48.078;11.968;2022-10-17T11:09:04;22.00;99.90
16829;DHT22;8531;48.078;11.968;2022-10-17T11:11:39;22.10;99.90
16829;DHT22;8531;48.078;11.968;2022-10-17T11:22:35;23.20;99.90
16829;DHT22;8531;48.078;11.968;2022-10-17T11:25:14;23.30;99.90
16829;DHT22;8531;48.078;11.968;2022-10-17T11:27:42;23.70;99.90
16829;DHT22;8531;48.078;11.968;2022-10-17T11:30:12;23.90;99.90
16829;DHT22;8531;48.078;11.968;2022-10-17T11:32:49;23.90;99.90
16829;DHT22;8531;48.078;11.968;2022-10-17T11:35:25;24.10;99.90
16829;DHT22;8531;48.078;11.968;2022-10-17T11:38:09;24.40;99.90
16829;DHT22;8531;48.078;11.968;2022-10-17T11:40:40;24.30;99.90
16829;DHT22;8531;48.078;11.968;2022-10-17T11:45:54;24.60;99.90
16829;DHT22;8531;48.078;11.968;2022-10-17T11:48:26;24.50;99.90
16829;DHT22;8531;48.078;11.968;2022-10-17T11:51:04;24.70;99.90
16829;DHT22;8531;48.078;11.968;2022-10-17T11:53:55;24.90;99.90
16829;DHT22;8531;48.078;11.968;2022-10-17T12:02:03;24.80;99.90
16829;DHT22;8531;48.078;11.968;2022-10-17T12:04:47;24.70;99.90
16829;DHT22;8531;48.078;11.968;2022-10-17T12:07:21;24.80;99.90
16829;DHT22;8531;48.078;11.968;2022-10-17T12:10:18;24.80;99.90
16829;DHT22;8531;48.078;11.968;2022-10-17T12:12:45;24.90;99.90
16829;DHT22;8531;48.078;11.968;2022-10-17T12:17:42;24.90;99.90
16829;DHT22;8531;48.078;11.968;2022-10-17T12:25:25;24.90;99.90
16829;DHT22;8531;48.078;11.968;2022-10-17T12:28:12;24.70;99.90
16829;DHT22;8531;48.078;11.968;2022-10-17T12:31:00;24.70;99.90
16829;DHT22;8531;48.078;11.968;2022-10-17T12:46:50;24.10;99.90
16829;DHT22;8531;48.078;11.968;2022-10-17T12:49:35;24.00;99.90
16829;DHT22;8531;48.078;11.968;2022-10-17T13:02:46;23.70;99.90
16829;DHT22;8531;48.078;11.968;2022-10-17T13:05:25;23.60;99.90
16829;DHT22;8531;48.078;11.968;2022-10-17T13:07:52;23.50;99.90
16829;DHT22;8531;48.078;11.968;2022-10-17T13:10:22;23.60;99.90
16829;DHT22;8531;48.078;11.968;2022-10-17T13:12:49;23.70;99.90
16829;DHT22;8531;48.078;11.968;2022-10-17T13:15:18;23.70;99.90
16829;DHT22;8531;48.078;11.968;2022-10-17T13:17:44;23.60;99.90
16829;DHT22;8531;48.078;11.968;2022-10-17T13:20:20;23.60;99.90
16829;DHT22;8531;48.078;11.968;2022-10-17T13:22:49;23.60;99.90
16829;DHT22;8531;48.078;11.968;2022-10-17T13:25:18;23.50;99.90
16829;DHT22;8531;48.078;11.968;2022-10-17T13:27:44;23.50;99.90
16829;DHT22;8531;48.078;11.968;2022-10-17T13:30:26;23.60;99.90
16829;DHT22;8531;48.078;11.968;2022-10-17T13:32:52;23.40;99.90
16829;DHT22;8531;48.078;11.968;2022-10-17T13:35:37;23.30;99.90
16829;DHT22;8531;48.078;11.968;2022-10-17T13:38:04;23.30;99.90
16829;DHT22;8531;48.078;11.968;2022-10-17T13:40:39;23.30;99.90
16829;DHT22;8531;48.078;11.968;2022-10-17T13:43:15;23.30;99.90
16829;DHT22;8531;48.078;11.968;2022-10-17T13:45:48;23.20;99.90
16829;DHT22;8531;48.078;11.968;2022-10-17T13:48:23;23.40;99.90
16829;DHT22;8531;48.078;11.968;2022-10-17T13:50:54;23.50;99.90
16829;DHT22;8531;48.078;11.968;2022-10-17T13:53:32;23.80;99.90
16829;DHT22;8531;48.078;11.968;2022-10-17T13:56:18;23.70;99.90
16829;DHT22;8531;48.078;11.968;2022-10-17T13:58:46;23.70;99.90
16829;DHT22;8531;48.078;11.968;2022-10-17T14:01:13;23.90;99.90
16829;DHT22;8531;48.078;11.968;2022-10-17T14:03:48;24.10;99.90
16829;DHT22;8531;48.078;11.968;2022-10-17T14:06:25;24.20;99.90
16829;DHT22;8531;48.078;11.968;2022-10-17T14:08:58;24.20;99.90
16829;DHT22;8531;48.078;11.968;2022-10-17T14:11:26;24.60;99.90
16829;DHT22;8531;48.078;11.968;2022-10-17T14:13:55;24.90;99.90
16829;DHT22;8531;48.078;11.968;2022-10-17T14:16:22;24.80;99.90
16829;DHT22;8531;48.078;11.968;2022-10-17T14:18:51;24.60;99.90
16829;DHT22;8531;48.078;11.968;2022-10-17T14:21:22;24.60;99.90
16829;DHT22;8531;48.078;11.968;2022-10-17T14:23:49;24.50;99.90
16829;DHT22;8531;48.078;11.968;2022-10-17T14:26:22;24.60;99.90
16829;DHT22;8531;48.078;11.968;2022-10-17T14:29:05;24.90;99.90
16829;DHT22;8531;48.078;11.968;2022-10-17T14:31:33;25.10;99.90
16829;DHT22;8531;48.078;11.968;2022-10-17T14:34:00;25.50;99.90
16829;DHT22;8531;48.078;11.968;2022-10-17T14:36:36;25.70;99.90
16829;DHT22;8531;48.078;11.968;2022-10-17T14:39:07;25.80;99.90
16829;DHT22;8531;48.078;11.968;2022-10-17T14:41:43;25.30;99.90
16829;DHT22;8531;48.078;11.968;2022-10-17T14:44:26;24.90;99.90
16829;DHT22;8531;48.078;11.968;2022-10-17T14:47:05;24.80;99.90
16829;DHT22;8531;48.078;11.968;2022-10-17T14:49:32;24.60;99.90
16829;DHT22;8531;48.078;11.968;2022-10-17T14:54:43;23.60;99.90
16829;DHT22;8531;48.078;11.968;2022-10-17T14:59:43;23.20;99.90
16829;DHT22;8531;48.078;11.968;2022-10-17T15:02:13;23.00;99.90
16829;DHT22;8531;48.078;11.968;2022-10-17T15:04:39;22.80;99.90
16829;DHT22;8531;48.078;11.968;2022-10-17T15:07:05;22.70;99.90
16829;DHT22;8531;48.078;11.968;2022-10-17T15:09:30;22.60;99.90
16829;DHT22;8531;48.078;11.968;2022-10-17T15:12:00;22.40;99.90
16829;DHT22;8531;48.078;11.968;2022-10-17T15:14:29;22.30;99.90
16829;DHT22;8531;48.078;11.968;2022-10-17T15:16:55;22.20;99.90
16829;DHT22;8531;48.078;11.968;2022-10-17T15:19:21;22.10;99.90
16829;DHT22;8531;48.078;11.968;2022-10-17T15:21:46;22.00;99.90
16829;DHT22;8531;48.078;11.968;2022-10-17T15:24:12;22.00;99.90
16829;DHT22;8531;48.078;11.968;2022-10-17T15:26:39;21.90;99.90
16829;DHT22;8531;48.078;11.968;2022-10-17T15:29:05;21.80;99.90
16829;DHT22;8531;48.078;11.968;2022-10-17T15:31:30;21.70;99.90
16829;DHT22;8531;48.078;11.968;2022-10-17T15:33:56;21.70;99.90
16829;DHT22;8531;48.078;11.968;2022-10-17T15:36:23;21.60;99.90
16829;DHT22;8531;48.078;11.968;2022-10-17T15:38:51;21.60;99.90
16829;DHT22;8531;48.078;11.968;2022-10-17T15:41:18;21.50;99.90
16829;DHT22;8531;48.078;11.968;2022-10-17T15:43:44;21.50;99.90
16829;DHT22;8531;48.078;11.968;2022-10-17T15:46:12;21.50;99.90
16829;DHT22;8531;48.078;11.968;2022-10-17T15:48:39;21.40;99.90
16829;DHT22;8531;48.078;11.968;2022-10-17T15:51:05;21.30;99.90
16829;DHT22;8531;48.078;11.968;2022-10-17T15:53:30;21.30;99.90
16829;DHT22;8531;48.078;11.968;2022-10-17T15:55:58;21.20;99.90
16829;DHT22;8531;48.078;11.968;2022-10-17T15:58:23;21.10;99.90
16829;DHT22;8531;48.078;11.968;2022-10-17T16:00:52;21.10;99.90
16829;DHT22;8531;48.078;11.968;2022-10-17T16:03:18;21.00;99.90
16829;DHT22;8531;48.078;11.968;2022-10-17T16:05:44;20.80;99.90
16829;DHT22;8531;48.078;11.968;2022-10-17T16:08:09;20.70;99.90
16829;DHT22;8531;48.078;11.968;2022-10-17T16:10:38;20.70;99.90
16829;DHT22;8531;48.078;11.968;2022-10-17T16:13:04;20.60;99.90
16829;DHT22;8531;48.078;11.968;2022-10-17T16:15:29;20.50;99.90
16829;DHT22;8531;48.078;11.968;2022-10-17T16:17:56;20.40;99.90
16829;DHT22;8531;48.078;11.968;2022-10-17T16:20:23;20.30;99.90
16829;DHT22;8531;48.078;11.968;2022-10-17T16:22:50;20.10;99.90
16829;DHT22;8531;48.078;11.968;2022-10-17T16:27:44;19.90;99.90
16829;DHT22;8531;48.078;11.968;2022-10-17T16:30:11;19.90;99.90
16829;DHT22;8531;48.078;11.968;2022-10-17T16:32:37;19.80;99.90
16829;DHT22;8531;48.078;11.968;2022-10-17T16:35:03;19.70;99.90
16829;DHT22;8531;48.078;11.968;2022-10-17T16:37:29;19.60;99.90
16829;DHT22;8531;48.078;11.968;2022-10-17T16:39:55;19.50;99.90
16829;DHT22;8531;48.078;11.968;2022-10-17T16:42:21;19.50;99.90
16829;DHT22;8531;48.078;11.968;2022-10-17T16:44:50;19.30;99.90
16829;DHT22;8531;48.078;11.968;2022-10-17T16:47:16;19.20;99.90
16829;DHT22;8531;48.078;11.968;2022-10-17T16:49:43;19.20;99.90
16829;DHT22;8531;48.078;11.968;2022-10-17T16:52:08;19.10;99.90
16829;DHT22;8531;48.078;11.968;2022-10-17T16:54:34;18.90;99.90
16829;DHT22;8531;48.078;11.968;2022-10-17T16:57:01;18.90;99.90
16829;DHT22;8531;48.078;11.968;2022-10-17T16:59:27;18.80;99.90
16829;DHT22;8531;48.078;11.968;2022-10-17T17:01:53;18.70;99.90
16829;DHT22;8531;48.078;11.968;2022-10-17T17:04:19;18.60;99.90
16829;DHT22;8531;48.078;11.968;2022-10-17T17:06:45;18.50;99.90
16829;DHT22;8531;48.078;11.968;2022-10-17T17:09:10;18.50;99.90
16829;DHT22;8531;48.078;11.968;2022-10-17T17:11:37;18.40;99.90
16829;DHT22;8531;48.078;11.968;2022-10-17T17:14:03;18.30;99.90
16829;DHT22;8531;48.078;11.968;2022-10-17T17:16:32;18.30;99.90
16829;DHT22;8531;48.078;11.968;2022-10-17T17:19:05;18.30;99.90
16829;DHT22;8531;48.078;11.968;2022-10-17T17:21:32;18.20;99.90
16829;DHT22;8531;48.078;11.968;2022-10-17T17:24:00;18.10;99.90
16829;DHT22;8531;48.078;11.968;2022-10-17T17:26:28;18.10;99.90
16829;DHT22;8531;48.078;11.968;2022-10-17T17:28:57;18.10;99.90
16829;DHT22;8531;48.078;11.968;2022-10-17T17:31:27;18.00;99.90
16829;DHT22;8531;48.078;11.968;2022-10-17T17:33:54;17.90;99.90
16829;DHT22;8531;48.078;11.968;2022-10-17T17:36:22;17.90;99.90
16829;DHT22;8531;48.078;11.968;2022-10-17T17:38:50;17.80;99.90
16829;DHT22;8531;48.078;11.968;2022-10-17T17:41:17;17.70;99.90
16829;DHT22;8531;48.078;11.968;2022-10-17T17:43:44;17.70;99.90
16829;DHT22;8531;48.078;11.968;2022-10-17T17:46:11;17.70;99.90
16829;DHT22;8531;48.078;11.968;2022-10-17T17:48:41;17.60;99.90